KLDM/LDM METAR and TAF weather

Enter ICAO airport designator
Station Type Date Time Source
KLDM METAR 2020/12/05 04:55 UTC NOAA

KLDM 050455Z AUTO 02003KT 10SM OVC021 00/M04 A3006 RMK AO2 T00031038


Station Type Date Time Source
KLDM Decoded METAR 2020/12/05 04:55 UTC NOAA

Ludington, Mason County Airport, MI, United States (KLDM) 43-58N 86-24W
Dec 04, 2020 - 11:55 PM EST / 2020.12.05 0455 UTC
Wind: from the NNE (020 degrees) at 3 MPH (3 KT):0
Visibility: 10 mile(s):0
Sky conditions: overcast
Temperature: 32.5 F (0.3 C)
Dew Point: 25.2 F (-3.8 C)
Relative Humidity: 73%
Pressure (altimeter): 30.06 in. Hg (1017 hPa)
ob: KLDM 050455Z AUTO 02003KT 10SM OVC021 00/M04 A3006 RMK AO2 T00031038
cycle: 5

Station Type Date Time Source
KLDM TAF UTC NOAA

Error!

Example: see airport list